KAVX/AVX METAR and TAF weather

Enter ICAO airport designator
Station Type Date Time Source
KAVX METAR 2019/08/21 02:51 UTC NOAA

KAVX 210251Z AUTO 25008KT 10SM CLR 22/04 A2992 RMK AO2 SLP109 T02220044 55006


Station Type Date Time Source
KAVX Decoded METAR 2019/08/21 02:51 UTC NOAA

Station name not available
Aug 20, 2019 - 10:51 PM EDT / 2019.08.21 0251 UTC
Wind: from the WSW (250 degrees) at 9 MPH (8 KT):0
Visibility: 10 mile(s):0
Sky conditions: clear
Temperature: 72.0 F (22.2 C)
Dew Point: 39.9 F (4.4 C)
Relative Humidity: 31%
Pressure (altimeter): 29.92 in. Hg (1013 hPa)
Pressure tendency: 0.02 inches (0.6 hPa) lower than three hours ago
ob: KAVX 210251Z AUTO 25008KT 10SM CLR 22/04 A2992 RMK AO2 SLP109 T02220044 55006
cycle: 3

Station Type Date Time Source
KAVX TAF UTC NOAA

Error!

Example: see airport list